Time;durP1;ratioP1;P1;durP2;ratioP2;P2;SDS_P1;SDS_P2;PMS_P1;PMS_P2;Temp;Humidity;BMP_temperature;BMP_pressure;BME280_temperature;BME280_humidity;BME280_pressure;Samples;Min_cycle;Max_cycle;Signal;HPM_P1;HPM_P2
2023/12/16 00:02:16;;;;;;;20.33;6.88;;;;;;;;;;5012176;28;20034;-61
2023/12/16 00:04:45;;;;;;;14.32;5.80;;;;;;;;;;5011245;28;20026;-61
2023/12/16 00:07:10;;;;;;;25.77;7.70;;;;;;;;;;5012236;28;20112;-61
2023/12/16 00:09:36;;;;;;;20.85;7.47;;;;;;;;;;5011901;28;20140;-62
2023/12/16 00:12:02;;;;;;;20.13;8.10;;;;;;;;;;5011622;28;20042;-61
2023/12/16 00:14:27;;;;;;;18.35;6.82;;;;;;;;;;5011745;28;20038;-62
2023/12/16 00:16:53;;;;;;;21.08;8.57;;;;;;;;;;5011224;28;20033;-62
2023/12/16 00:19:18;;;;;;;14.70;6.55;;;;;;;;;;5012522;28;20030;-63
2023/12/16 00:21:44;;;;;;;19.42;7.60;;;;;;;;;;5010969;28;20145;-62
2023/12/16 00:24:09;;;;;;;19.17;7.05;;;;;;;;;;5011339;28;20501;-61
2023/12/16 00:26:34;;;;;;;16.05;6.45;;;;;;;;;;5012242;28;20083;-62
2023/12/16 00:29:00;;;;;;;22.20;6.10;;;;;;;;;;5011428;28;20440;-61
2023/12/16 00:31:28;;;;;;;18.48;6.75;;;;;;;;;;5012079;28;20096;-61
2023/12/16 00:33:54;;;;;;;15.35;6.50;;;;;;;;;;5011189;28;20034;-61
2023/12/16 00:36:19;;;;;;;19.95;6.88;;;;;;;;;;5012089;28;20025;-61
2023/12/16 00:38:44;;;;;;;18.48;6.45;;;;;;;;;;5011328;28;20030;-61
2023/12/16 00:41:10;;;;;;;19.45;7.10;;;;;;;;;;5012181;28;20034;-62
2023/12/16 00:43:35;;;;;;;19.13;6.95;;;;;;;;;;5011847;28;20260;-61
2023/12/16 00:46:00;;;;;;;18.50;6.95;;;;;;;;;;5011092;28;20273;-61
2023/12/16 00:48:26;;;;;;;15.32;6.15;;;;;;;;;;5011799;28;20030;-61
2023/12/16 00:50:51;;;;;;;18.88;6.65;;;;;;;;;;5010700;28;20087;-61
2023/12/16 00:53:17;;;;;;;20.98;7.88;;;;;;;;;;5011746;28;20120;-62
2023/12/16 00:55:42;;;;;;;25.27;8.40;;;;;;;;;;5042455;28;20026;-62
2023/12/16 00:58:08;;;;;;;26.90;10.02;;;;;;;;;;5010241;28;20417;-62
2023/12/16 01:00:33;;;;;;;21.88;7.97;;;;;;;;;;5011666;28;20033;-61
2023/12/16 01:02:59;;;;;;;26.10;8.50;;;;;;;;;;5010736;28;20105;-61
2023/12/16 01:05:24;;;;;;;25.48;9.63;;;;;;;;;;5011534;28;20456;-61
2023/12/16 01:07:50;;;;;;;23.10;9.98;;;;;;;;;;5010791;28;20380;-61
2023/12/16 01:10:16;;;;;;;25.60;9.43;;;;;;;;;;5011742;28;20109;-61
2023/12/16 01:12:41;;;;;;;24.17;9.35;;;;;;;;;;5011155;28;20048;-61
2023/12/16 01:15:07;;;;;;;21.67;8.63;;;;;;;;;;5011096;28;20034;-61
2023/12/16 01:17:32;;;;;;;19.83;8.30;;;;;;;;;;5011487;28;20030;-61
2023/12/16 01:19:58;;;;;;;18.42;7.68;;;;;;;;;;5010409;28;20574;-61
2023/12/16 01:22:24;;;;;;;21.20;7.72;;;;;;;;;;5011463;28;20146;-61
2023/12/16 01:24:49;;;;;;;22.67;7.78;;;;;;;;;;5010802;28;20069;-61
2023/12/16 01:27:14;;;;;;;16.88;7.20;;;;;;;;;;5011306;28;20034;-61
2023/12/16 01:29:40;;;;;;;20.80;7.45;;;;;;;;;;5011470;28;20030;-62
2023/12/16 01:32:07;;;;;;;23.50;7.88;;;;;;;;;;5011128;28;20033;-61
2023/12/16 01:34:32;;;;;;;23.98;8.13;;;;;;;;;;5011348;28;20392;-61
2023/12/16 01:36:58;;;;;;;29.35;9.73;;;;;;;;;;5013497;28;20033;-61
2023/12/16 01:39:23;;;;;;;27.75;7.90;;;;;;;;;;5014963;28;20416;-62
2023/12/16 01:41:48;;;;;;;20.48;6.88;;;;;;;;;;5014278;28;20109;-61
2023/12/16 01:44:14;;;;;;;24.45;7.40;;;;;;;;;;5014815;28;20042;-62
2023/12/16 01:46:39;;;;;;;21.92;7.22;;;;;;;;;;5014835;28;20379;-62
2023/12/16 01:49:04;;;;;;;25.75;8.00;;;;;;;;;;5013534;28;20053;-61
2023/12/16 01:51:32;;;;;;;20.50;7.20;;;;;;;;;;5014619;28;20030;-62
2023/12/16 01:53:58;;;;;;;15.80;7.20;;;;;;;;;;5013651;28;20061;-63
2023/12/16 01:56:24;;;;;;;20.27;8.10;;;;;;;;;;5014231;28;20087;-61
2023/12/16 01:58:50;;;;;;;20.10;8.20;;;;;;;;;;5045521;28;20411;-61
2023/12/16 02:01:16;;;;;;;16.17;7.47;;;;;;;;;;5014599;28;20033;-61
2023/12/16 02:03:44;;;;;;;33.75;15.32;;;;;;;;;;5014605;28;20030;-61
2023/12/16 02:06:09;;;;;;;21.98;9.77;;;;;;;;;;5014323;28;20035;-62
2023/12/16 02:08:36;;;;;;;19.02;8.27;;;;;;;;;;5014212;28;20030;-61
2023/12/16 02:11:01;;;;;;;19.25;7.80;;;;;;;;;;5012534;28;20025;-61
2023/12/16 02:13:27;;;;;;;19.35;6.93;;;;;;;;;;5014520;28;20506;-62
2023/12/16 02:15:52;;;;;;;17.02;5.95;;;;;;;;;;5013557;28;20033;-60
2023/12/16 02:18:17;;;;;;;15.75;6.38;;;;;;;;;;5014403;28;20084;-62
2023/12/16 02:20:43;;;;;;;16.95;6.88;;;;;;;;;;5013839;28;20447;-62
2023/12/16 02:23:17;;;;;;;20.52;6.57;;;;;;;;;;5013265;28;20416;-62
2023/12/16 02:25:43;;;;;;;18.75;6.78;;;;;;;;;;5013783;28;20033;-62
2023/12/16 02:28:09;;;;;;;16.35;5.97;;;;;;;;;;5013110;28;20488;-62
2023/12/16 02:30:35;;;;;;;21.55;6.80;;;;;;;;;;5014005;28;20080;-62
2023/12/16 02:33:00;;;;;;;24.45;6.07;;;;;;;;;;5013003;28;20357;-62
2023/12/16 02:35:25;;;;;;;21.45;6.45;;;;;;;;;;5012320;28;20034;-62
2023/12/16 02:37:51;;;;;;;17.48;6.60;;;;;;;;;;5012867;28;20121;-62
2023/12/16 02:40:16;;;;;;;18.65;6.07;;;;;;;;;;5013703;28;20403;-62
2023/12/16 02:42:42;;;;;;;17.55;6.05;;;;;;;;;;5013293;28;20022;-62
2023/12/16 02:45:07;;;;;;;17.83;6.10;;;;;;;;;;5012620;28;20041;-62
2023/12/16 02:47:33;;;;;;;18.70;5.90;;;;;;;;;;5013155;28;20105;-61
2023/12/16 02:49:58;;;;;;;18.67;6.68;;;;;;;;;;5012680;28;20497;-62
2023/12/16 02:52:24;;;;;;;17.98;6.10;;;;;;;;;;5013125;28;20125;-62
2023/12/16 02:54:49;;;;;;;16.30;5.90;;;;;;;;;;5012525;28;20025;-61
2023/12/16 02:57:15;;;;;;;11.80;5.22;;;;;;;;;;5013314;28;20037;-61
2023/12/16 02:59:40;;;;;;;16.48;5.85;;;;;;;;;;5013132;28;20165;-61
2023/12/16 03:02:05;;;;;;;17.08;5.80;;;;;;;;;;5012136;28;20655;-61
2023/12/16 03:04:31;;;;;;;16.48;5.93;;;;;;;;;;5012895;28;20030;-61
2023/12/16 03:06:56;;;;;;;18.08;5.70;;;;;;;;;;5012367;28;20384;-61
2023/12/16 03:09:22;;;;;;;15.27;5.80;;;;;;;;;;5013238;28;20038;-62
2023/12/16 03:11:49;;;;;;;15.80;5.68;;;;;;;;;;5012765;28;20034;-62
2023/12/16 03:14:16;;;;;;;15.65;5.80;;;;;;;;;;5012710;28;20435;-61
2023/12/16 03:16:41;;;;;;;22.35;5.65;;;;;;;;;;5028023;28;20408;-61
2023/12/16 03:19:06;;;;;;;12.57;5.90;;;;;;;;;;5012247;28;20033;-61
2023/12/16 03:21:32;;;;;;;15.07;5.22;;;;;;;;;;5012931;28;20053;-62
2023/12/16 03:23:57;;;;;;;14.60;5.82;;;;;;;;;;5012106;28;20512;-62
2023/12/16 03:26:23;;;;;;;14.63;5.20;;;;;;;;;;5012733;28;20033;-61
2023/12/16 03:28:48;;;;;;;21.02;5.65;;;;;;;;;;5012489;28;20465;-62
2023/12/16 03:31:13;;;;;;;18.67;5.68;;;;;;;;;;5012405;28;20112;-61
2023/12/16 03:33:39;;;;;;;16.13;5.05;;;;;;;;;;5012790;28;20025;-62
2023/12/16 03:36:08;;;;;;;14.40;5.82;;;;;;;;;;5011796;28;20033;-61
2023/12/16 03:38:33;;;;;;;11.70;5.28;;;;;;;;;;5012615;28;20476;-61
2023/12/16 03:40:58;;;;;;;11.50;5.13;;;;;;;;;;5012249;28;20033;-61
2023/12/16 03:43:24;;;;;;;18.67;5.40;;;;;;;;;;5012788;28;20358;-61
2023/12/16 03:45:49;;;;;;;13.32;5.03;;;;;;;;;;5012095;28;20112;-61
2023/12/16 03:48:15;;;;;;;13.13;5.05;;;;;;;;;;5012805;28;20033;-61
2023/12/16 03:50:40;;;;;;;16.63;4.97;;;;;;;;;;5012671;28;20033;-61
2023/12/16 03:53:05;;;;;;;19.05;4.93;;;;;;;;;;5011904;28;20026;-61
2023/12/16 03:55:31;;;;;;;15.55;4.70;;;;;;;;;;5012556;28;20388;-61
2023/12/16 03:57:56;;;;;;;12.55;4.70;;;;;;;;;;5010776;28;20519;-61
2023/12/16 04:00:22;;;;;;;11.85;3.40;;;;;;;;;;5012380;28;20388;-61
2023/12/16 04:02:47;;;;;;;10.48;3.75;;;;;;;;;;5012169;28;20120;-61
2023/12/16 04:05:13;;;;;;;13.73;4.25;;;;;;;;;;5011330;28;20038;-61
2023/12/16 04:07:38;;;;;;;9.50;3.65;;;;;;;;;;5011978;28;20065;-61
2023/12/16 04:10:05;;;;;;;13.95;4.72;;;;;;;;;;5011428;28;20022;-61
2023/12/16 04:12:31;;;;;;;15.98;3.92;;;;;;;;;;5012238;28;20037;-61
2023/12/16 04:14:57;;;;;;;14.18;4.38;;;;;;;;;;5010830;28;20365;-61
2023/12/16 04:17:22;;;;;;;11.43;3.53;;;;;;;;;;5012163;28;20040;-61
2023/12/16 04:19:52;;;;;;;10.20;4.28;;;;;;;;;;5011741;28;20053;-61
2023/12/16 04:22:18;;;;;;;15.57;3.85;;;;;;;;;;5011565;28;20029;-61
2023/12/16 04:24:44;;;;;;;12.23;4.13;;;;;;;;;;5011995;28;20113;-61
2023/12/16 04:27:10;;;;;;;15.77;4.28;;;;;;;;;;5011101;28;20066;-61
2023/12/16 04:29:35;;;;;;;16.45;3.83;;;;;;;;;;5012003;28;20057;-61
2023/12/16 04:32:01;;;;;;;9.25;3.75;;;;;;;;;;5011445;28;20427;-61
2023/12/16 04:34:26;;;;;;;10.02;3.60;;;;;;;;;;5011655;28;20026;-61
2023/12/16 04:36:51;;;;;;;11.55;3.60;;;;;;;;;;5010298;28;20030;-61
2023/12/16 04:39:17;;;;;;;14.13;3.65;;;;;;;;;;5010171;28;20042;-61
2023/12/16 04:41:43;;;;;;;10.80;3.38;;;;;;;;;;5011781;28;20065;-61
2023/12/16 04:44:08;;;;;;;10.20;3.38;;;;;;;;;;5011082;28;20116;-61
2023/12/16 04:46:34;;;;;;;13.52;3.28;;;;;;;;;;5011770;28;20380;-61
2023/12/16 04:49:00;;;;;;;11.93;3.28;;;;;;;;;;5011004;28;20065;-61
2023/12/16 04:51:25;;;;;;;11.95;3.30;;;;;;;;;;5011877;28;20116;-61
2023/12/16 04:53:50;;;;;;;10.93;3.60;;;;;;;;;;5012042;28;20026;-61
2023/12/16 04:56:16;;;;;;;10.18;2.92;;;;;;;;;;5010557;28;20037;-61
2023/12/16 04:58:41;;;;;;;8.10;3.13;;;;;;;;;;5011722;28;20117;-61
2023/12/16 05:01:06;;;;;;;12.80;3.17;;;;;;;;;;5042592;28;20034;-61
2023/12/16 05:03:32;;;;;;;15.50;3.42;;;;;;;;;;5011803;28;20026;-61
2023/12/16 05:05:58;;;;;;;10.63;3.17;;;;;;;;;;5010766;28;20104;-61
2023/12/16 05:08:23;;;;;;;10.85;3.28;;;;;;;;;;5011630;28;20030;-61
2023/12/16 05:10:48;;;;;;;10.52;3.70;;;;;;;;;;5014831;28;20057;-61
2023/12/16 05:13:17;;;;;;;8.65;3.10;;;;;;;;;;5014444;28;20030;-61
2023/12/16 05:15:43;;;;;;;9.77;3.42;;;;;;;;;;5015118;28;20148;-61
2023/12/16 05:18:08;;;;;;;9.30;3.83;;;;;;;;;;5014796;28;20112;-61
2023/12/16 05:20:34;;;;;;;13.90;3.40;;;;;;;;;;5015682;28;20064;-61
2023/12/16 05:23:00;;;;;;;11.15;3.70;;;;;;;;;;5014597;28;20029;-61
2023/12/16 05:25:30;;;;;;;14.15;3.65;;;;;;;;;;5015354;28;20034;-61
2023/12/16 05:27:56;;;;;;;17.63;5.53;;;;;;;;;;5014843;28;20026;-61
2023/12/16 05:30:22;;;;;;;19.45;6.03;;;;;;;;;;5015146;28;20546;-62
2023/12/16 05:32:47;;;;;;;34.75;13.68;;;;;;;;;;5013864;28;20117;-61
2023/12/16 05:35:13;;;;;;;18.02;7.07;;;;;;;;;;5014223;28;20229;-61
2023/12/16 05:37:38;;;;;;;14.15;4.90;;;;;;;;;;5015196;28;20037;-61
2023/12/16 05:40:04;;;;;;;19.08;5.93;;;;;;;;;;5014196;28;20384;-61
2023/12/16 05:42:30;;;;;;;13.48;4.80;;;;;;;;;;5014862;28;20088;-61
2023/12/16 05:44:55;;;;;;;14.63;4.88;;;;;;;;;;5014518;28;20068;-62
2023/12/16 05:47:21;;;;;;;11.40;4.55;;;;;;;;;;5013963;28;20038;-61
2023/12/16 05:49:46;;;;;;;13.88;3.88;;;;;;;;;;5014626;28;20037;-61
2023/12/16 05:52:12;;;;;;;11.90;3.85;;;;;;;;;;5013944;28;20041;-61
2023/12/16 05:54:37;;;;;;;14.00;3.45;;;;;;;;;;5014719;28;20029;-61
2023/12/16 05:57:03;;;;;;;15.20;3.95;;;;;;;;;;5013819;28;20456;-61
2023/12/16 05:59:28;;;;;;;12.27;3.90;;;;;;;;;;5014618;28;20495;-61
2023/12/16 06:01:55;;;;;;;12.85;3.35;;;;;;;;;;5014459;28;20104;-62
2023/12/16 06:04:20;;;;;;;12.68;3.33;;;;;;;;;;5013538;28;20076;-61
2023/12/16 06:06:45;;;;;;;10.02;4.22;;;;;;;;;;5014131;28;20106;-62
2023/12/16 06:09:12;;;;;;;12.18;3.55;;;;;;;;;;5013353;28;20025;-61
2023/12/16 06:11:37;;;;;;;15.57;3.92;;;;;;;;;;5013117;28;20124;-61
2023/12/16 06:14:03;;;;;;;15.02;4.43;;;;;;;;;;5013269;28;20117;-61
2023/12/16 06:16:28;;;;;;;12.75;4.75;;;;;;;;;;5014156;28;20063;-61
2023/12/16 06:18:54;;;;;;;14.73;4.55;;;;;;;;;;5014291;28;20491;-61
2023/12/16 06:21:19;;;;;;;9.40;3.03;;;;;;;;;;5012199;28;20079;-61
2023/12/16 06:23:45;;;;;;;11.27;4.05;;;;;;;;;;5014197;28;20044;-61
2023/12/16 06:26:10;;;;;;;14.35;3.58;;;;;;;;;;5013151;28;20026;-61
2023/12/16 06:28:36;;;;;;;9.40;3.42;;;;;;;;;;5014142;28;20030;-61
2023/12/16 06:31:01;;;;;;;12.77;3.30;;;;;;;;;;5013474;28;20034;-61
2023/12/16 06:33:26;;;;;;;13.35;3.55;;;;;;;;;;5013664;28;20384;-61
2023/12/16 06:35:52;;;;;;;7.72;2.70;;;;;;;;;;5013896;28;20108;-61
2023/12/16 06:38:17;;;;;;;11.43;3.30;;;;;;;;;;5011816;28;20041;-61
2023/12/16 06:40:43;;;;;;;12.38;3.58;;;;;;;;;;5013861;28;20026;-61
2023/12/16 06:43:09;;;;;;;13.32;3.30;;;;;;;;;;5012870;28;20358;-61
2023/12/16 06:45:34;;;;;;;10.73;3.53;;;;;;;;;;5013577;28;20034;-61
2023/12/16 06:48:00;;;;;;;11.30;3.28;;;;;;;;;;5013310;28;20041;-61
2023/12/16 06:50:26;;;;;;;6.75;2.70;;;;;;;;;;5013203;28;20495;-62
2023/12/16 06:52:51;;;;;;;15.43;3.30;;;;;;;;;;5013730;28;20049;-62
2023/12/16 06:55:17;;;;;;;8.13;3.17;;;;;;;;;;5012944;28;20036;-63
2023/12/16 06:57:43;;;;;;;11.00;3.78;;;;;;;;;;5013728;28;20528;-61
2023/12/16 07:00:09;;;;;;;13.90;3.40;;;;;;;;;;5013114;28;20029;-61
2023/12/16 07:02:36;;;;;;;11.77;3.45;;;;;;;;;;5013087;28;20439;-63
2023/12/16 07:05:02;;;;;;;6.40;2.92;;;;;;;;;;5013175;28;20081;-61
2023/12/16 07:07:28;;;;;;;10.32;3.50;;;;;;;;;;5013056;28;20034;-61
2023/12/16 07:09:53;;;;;;;7.32;3.03;;;;;;;;;;5013394;28;20105;-61
2023/12/16 07:12:18;;;;;;;11.13;3.38;;;;;;;;;;5012681;28;20116;-61
2023/12/16 07:14:44;;;;;;;8.18;3.15;;;;;;;;;;5013070;28;20037;-61
2023/12/16 07:17:10;;;;;;;11.55;3.92;;;;;;;;;;5012816;28;20049;-61
2023/12/16 07:19:35;;;;;;;16.65;3.75;;;;;;;;;;5012691;28;20033;-61
2023/12/16 07:22:02;;;;;;;8.30;2.60;;;;;;;;;;5012977;28;20079;-61
2023/12/16 07:24:27;;;;;;;17.45;3.83;;;;;;;;;;5012517;28;20061;-61
2023/12/16 07:26:53;;;;;;;15.90;3.60;;;;;;;;;;5012818;28;20064;-61
2023/12/16 07:29:18;;;;;;;13.13;3.63;;;;;;;;;;5012154;28;20038;-61
2023/12/16 07:31:47;;;;;;;12.20;3.13;;;;;;;;;;5012962;28;20059;-61
2023/12/16 07:34:13;;;;;;;11.57;3.65;;;;;;;;;;5027246;28;20084;-61
2023/12/16 07:36:38;;;;;;;13.88;3.60;;;;;;;;;;5012763;28;20452;-61
2023/12/16 07:39:03;;;;;;;13.32;3.47;;;;;;;;;;5012182;28;20121;-62
2023/12/16 07:41:29;;;;;;;11.82;3.75;;;;;;;;;;5012373;28;20033;-61
2023/12/16 07:43:54;;;;;;;15.90;3.90;;;;;;;;;;5012801;28;20036;-62
2023/12/16 07:46:20;;;;;;;15.13;3.42;;;;;;;;;;5011837;28;20025;-62
2023/12/16 07:48:45;;;;;;;19.05;4.88;;;;;;;;;;5012713;28;20033;-61
2023/12/16 07:51:17;;;;;;;25.33;6.53;;;;;;;;;;5011696;28;20032;-61
2023/12/16 07:53:46;;;;;;;32.40;8.35;;;;;;;;;;5012302;28;20068;-62
2023/12/16 07:56:22;;;;;;;24.55;7.00;;;;;;;;;;5011953;28;20108;-62
2023/12/16 07:58:49;;;;;;;14.85;4.45;;;;;;;;;;5012622;28;20120;-62
2023/12/16 08:01:15;;;;;;;13.45;4.28;;;;;;;;;;5011516;28;20115;-62
2023/12/16 08:03:41;;;;;;;16.55;4.15;;;;;;;;;;5012548;28;20432;-62
2023/12/16 08:06:09;;;;;;;13.98;3.92;;;;;;;;;;5011433;28;20205;-62
2023/12/16 08:08:35;;;;;;;15.32;4.38;;;;;;;;;;5012299;28;20389;-62
2023/12/16 08:11:00;;;;;;;15.40;4.40;;;;;;;;;;5012208;28;20025;-61
2023/12/16 08:13:26;;;;;;;14.00;4.30;;;;;;;;;;5011563;28;20595;-62
2023/12/16 08:15:51;;;;;;;13.45;4.43;;;;;;;;;;5012394;28;20030;-62
2023/12/16 08:18:16;;;;;;;13.63;4.60;;;;;;;;;;5011207;28;20101;-61
2023/12/16 08:20:42;;;;;;;12.18;3.42;;;;;;;;;;5012344;28;20559;-61
2023/12/16 08:23:08;;;;;;;10.68;3.50;;;;;;;;;;5011334;28;20034;-61
2023/12/16 08:25:37;;;;;;;11.25;3.72;;;;;;;;;;5011755;28;20408;-61
2023/12/16 08:28:03;;;;;;;13.18;3.72;;;;;;;;;;5011999;28;20056;-62
2023/12/16 08:30:28;;;;;;;11.57;3.50;;;;;;;;;;5010071;28;20034;-61
2023/12/16 08:32:53;;;;;;;13.98;4.00;;;;;;;;;;5012501;28;20362;-61
2023/12/16 08:35:19;;;;;;;13.20;3.10;;;;;;;;;;5011616;28;20030;-61
2023/12/16 08:37:44;;;;;;;15.27;4.05;;;;;;;;;;5012320;28;20030;-62
2023/12/16 08:40:10;;;;;;;11.60;3.60;;;;;;;;;;5011246;28;20065;-61
2023/12/16 08:42:36;;;;;;;14.23;4.35;;;;;;;;;;5011938;28;20041;-61
2023/12/16 08:45:02;;;;;;;10.07;2.97;;;;;;;;;;5014020;28;20040;-61
2023/12/16 08:47:27;;;;;;;22.17;3.70;;;;;;;;;;5015008;28;20746;-61
2023/12/16 08:49:53;;;;;;;11.45;3.65;;;;;;;;;;5015706;28;20040;-61
2023/12/16 08:52:18;;;;;;;10.20;3.50;;;;;;;;;;5014769;28;20073;-61
2023/12/16 08:54:44;;;;;;;14.68;3.60;;;;;;;;;;5015755;28;20084;-61
2023/12/16 08:57:10;;;;;;;11.90;3.25;;;;;;;;;;5015166;28;20030;-61
2023/12/16 08:59:35;;;;;;;10.88;3.33;;;;;;;;;;5015852;28;20034;-61
2023/12/16 09:02:02;;;;;;;12.68;3.90;;;;;;;;;;5015629;28;20092;-61
2023/12/16 09:04:27;;;;;;;13.57;3.10;;;;;;;;;;5014704;28;20064;-61
2023/12/16 09:06:54;;;;;;;10.50;3.67;;;;;;;;;;5015407;28;20057;-61
2023/12/16 09:09:20;;;;;;;10.80;3.05;;;;;;;;;;5014608;28;20443;-61
2023/12/16 09:11:45;;;;;;;16.17;4.05;;;;;;;;;;5015206;28;20464;-61
2023/12/16 09:14:11;;;;;;;14.48;3.85;;;;;;;;;;5014877;28;20113;-61
2023/12/16 09:16:36;;;;;;;10.68;3.35;;;;;;;;;;5015355;28;20117;-61
2023/12/16 09:19:03;;;;;;;10.57;3.55;;;;;;;;;;5015188;28;20038;-61
2023/12/16 09:21:29;;;;;;;8.40;3.30;;;;;;;;;;5012801;28;20049;-61
2023/12/16 09:23:55;;;;;;;13.63;3.78;;;;;;;;;;5015697;28;20046;-62
2023/12/16 09:26:21;;;;;;;12.48;3.25;;;;;;;;;;5014257;28;20104;-60
2023/12/16 09:28:48;;;;;;;8.05;2.65;;;;;;;;;;5014870;28;20414;-61
2023/12/16 09:31:13;;;;;;;10.45;3.75;;;;;;;;;;5012851;28;20034;-61
2023/12/16 09:33:38;;;;;;;14.10;3.83;;;;;;;;;;5014658;28;20026;-61
2023/12/16 09:36:04;;;;;;;16.85;4.25;;;;;;;;;;5014878;28;20117;-61
2023/12/16 09:38:30;;;;;;;12.27;3.50;;;;;;;;;;5013838;28;20036;-61
2023/12/16 09:40:55;;;;;;;17.00;4.10;;;;;;;;;;5014767;28;20479;-61
2023/12/16 09:43:22;;;;;;;15.63;3.70;;;;;;;;;;5013963;28;20089;-61
2023/12/16 09:45:48;;;;;;;12.43;3.38;;;;;;;;;;5014750;28;20022;-61
2023/12/16 09:48:16;;;;;;;13.82;3.42;;;;;;;;;;5013866;28;20056;-61
2023/12/16 09:50:42;;;;;;;12.50;3.20;;;;;;;;;;5014617;28;20042;-61
2023/12/16 09:53:07;;;;;;;15.60;3.10;;;;;;;;;;5015013;28;20040;-61
2023/12/16 09:55:32;;;;;;;12.02;3.15;;;;;;;;;;5013299;28;20057;-61
2023/12/16 09:57:59;;;;;;;9.20;2.72;;;;;;;;;;5013828;28;20031;-61
2023/12/16 10:00:28;;;;;;;15.98;3.25;;;;;;;;;;5013695;28;20034;-61
2023/12/16 10:02:56;;;;;;;8.93;3.00;;;;;;;;;;5014273;28;20484;-61
2023/12/16 10:05:25;;;;;;;9.70;3.22;;;;;;;;;;5012442;28;20056;-61
2023/12/16 10:07:56;;;;;;;11.07;3.03;;;;;;;;;;5013039;28;20076;-61
2023/12/16 10:10:22;;;;;;;17.30;4.72;;;;;;;;;;5013646;28;20451;-61
2023/12/16 10:12:47;;;;;;;23.35;4.97;;;;;;;;;;5014697;28;20219;-61
2023/12/16 10:15:28;;;;;;;16.17;3.70;;;;;;;;;;5014086;28;20025;-61
2023/12/16 10:17:54;;;;;;;;;;;;;;;;;;5014774;28;20030;-61
2023/12/16 10:20:19;;;;;;;13.82;3.60;;;;;;;;;;5013453;28;19917;-61
2023/12/16 10:22:45;;;;;;;10.00;2.85;;;;;;;;;;5014375;28;20056;-61
2023/12/16 10:25:11;;;;;;;13.55;3.38;;;;;;;;;;5013202;28;20455;-61
2023/12/16 10:27:41;;;;;;;8.63;2.67;;;;;;;;;;5013385;28;20478;-61
2023/12/16 10:30:07;;;;;;;14.90;3.78;;;;;;;;;;5018956;28;20120;-61
2023/12/16 10:32:33;;;;;;;12.25;3.28;;;;;;;;;;5013049;28;20092;-61
2023/12/16 10:35:02;;;;;;;11.75;3.38;;;;;;;;;;5013888;28;20026;-61
2023/12/16 10:37:27;;;;;;;15.50;3.70;;;;;;;;;;5012929;28;20026;-61
2023/12/16 10:39:53;;;;;;;9.98;2.95;;;;;;;;;;5013817;28;20057;-61
2023/12/16 10:42:19;;;;;;;13.57;3.40;;;;;;;;;;5013093;28;20030;-61
2023/12/16 10:44:44;;;;;;;15.77;2.92;;;;;;;;;;5017075;28;20479;-61
2023/12/16 10:47:16;;;;;;;9.32;2.78;;;;;;;;;;5026632;28;20111;-61
2023/12/16 10:49:47;;;;;;;11.73;3.55;;;;;;;;;;5022027;28;20029;-60
2023/12/16 10:52:13;;;;;;;12.90;3.50;;;;;;;;;;5013625;28;20037;-61
2023/12/16 10:54:40;;;;;;;9.82;2.88;;;;;;;;;;5013108;28;20440;-61
2023/12/16 10:57:26;;;;;;;13.93;3.05;;;;;;;;;;5013765;28;20022;-61
2023/12/16 11:00:06;;;;;;;13.18;3.08;;;;;;;;;;5013399;28;20034;-61
2023/12/16 11:02:36;;;;;;;11.23;3.15;;;;;;;;;;5012558;28;20026;-61
2023/12/16 11:05:18;;;;;;;9.40;2.80;;;;;;;;;;5028489;28;20088;-61
2023/12/16 11:07:43;;;;;;;12.82;3.53;;;;;;;;;;5027454;28;20110;-60
2023/12/16 11:10:09;;;;;;;11.00;3.88;;;;;;;;;;5033083;28;20092;-62
2023/12/16 11:12:36;;;;;;;14.05;3.40;;;;;;;;;;5031963;28;20037;-60
2023/12/16 11:15:04;;;;;;;7.32;2.72;;;;;;;;;;5031504;28;20029;-62
2023/12/16 11:17:35;;;;;;;15.45;3.58;;;;;;;;;;5031118;28;20538;-62
2023/12/16 11:20:06;;;;;;;;;;;;;;;;;;5032939;28;20092;-60
2023/12/16 11:22:33;;;;;;;7.72;2.45;;;;;;;;;;5013312;28;20389;-61
2023/12/16 11:25:00;;;;;;;13.10;3.80;;;;;;;;;;5012939;28;20472;-62
2023/12/16 11:27:29;;;;;;;12.13;3.20;;;;;;;;;;5028533;28;20056;-62
2023/12/16 11:30:02;;;;;;;13.80;3.72;;;;;;;;;;5012575;28;20037;-61
2023/12/16 11:32:27;;;;;;;15.15;3.40;;;;;;;;;;5012722;28;20038;-61
2023/12/16 11:34:53;;;;;;;10.13;2.70;;;;;;;;;;5012823;28;20080;-61
2023/12/16 11:37:36;;;;;;;11.43;2.75;;;;;;;;;;5013963;28;20026;-62
2023/12/16 11:40:07;;;;;;;17.27;3.83;;;;;;;;;;5031932;28;20492;-62
2023/12/16 11:42:51;;;;;;;12.38;3.38;;;;;;;;;;5023493;28;20045;-62
2023/12/16 11:45:46;;;;;;;13.40;3.03;;;;;;;;;;5011859;28;20037;-62
2023/12/16 11:48:15;;;;;;;12.23;2.90;;;;;;;;;;5020673;28;20029;-62
2023/12/16 11:50:47;;;;;;;12.27;3.00;;;;;;;;;;5017167;28;20033;-62
2023/12/16 11:53:14;;;;;;;12.98;3.15;;;;;;;;;;5012859;28;20039;-62
2023/12/16 11:55:40;;;;;;;13.32;3.22;;;;;;;;;;5012288;28;20034;-65
2023/12/16 11:58:06;;;;;;;10.93;2.47;;;;;;;;;;5012349;28;20034;-61
2023/12/16 12:00:32;;;;;;;8.30;2.78;;;;;;;;;;5026042;28;20036;-62
2023/12/16 12:03:01;;;;;;;9.38;3.28;;;;;;;;;;5020529;28;20034;-61
2023/12/16 12:05:27;;;;;;;16.42;3.55;;;;;;;;;;5012302;28;20037;-62
2023/12/16 12:07:53;;;;;;;15.60;3.70;;;;;;;;;;5012093;28;20033;-61
2023/12/16 12:10:18;;;;;;;9.90;3.13;;;;;;;;;;5011587;28;20033;-60
2023/12/16 12:12:44;;;;;;;13.23;3.83;;;;;;;;;;5012242;28;20477;-60
2023/12/16 12:15:09;;;;;;;14.18;3.38;;;;;;;;;;5014918;28;20038;-61
2023/12/16 12:17:36;;;;;;;15.75;3.45;;;;;;;;;;5011888;28;20030;-60
2023/12/16 12:20:02;;;;;;;21.13;6.90;;;;;;;;;;5011361;28;20042;-61
2023/12/16 12:22:28;;;;;;;13.80;3.10;;;;;;;;;;5011481;28;20033;-61
2023/12/16 12:24:54;;;;;;;15.70;3.47;;;;;;;;;;5016333;28;20029;-61
2023/12/16 12:27:20;;;;;;;9.52;2.75;;;;;;;;;;5026279;28;20030;-61
2023/12/16 12:29:59;;;;;;;7.20;2.72;;;;;;;;;;5011265;28;20034;-61
2023/12/16 12:32:29;;;;;;;9.07;3.38;;;;;;;;;;5011038;28;20034;-61
2023/12/16 12:35:05;;;;;;;11.45;3.33;;;;;;;;;;5016918;28;20026;-61
2023/12/16 12:37:39;;;;;;;16.98;3.53;;;;;;;;;;5030609;28;20030;-61
2023/12/16 12:40:14;;;;;;;15.45;3.72;;;;;;;;;;5025716;28;20030;-61
2023/12/16 12:42:57;;;;;;;14.57;3.80;;;;;;;;;;5011126;28;20423;-61
2023/12/16 12:45:34;;;;;;;14.55;3.55;;;;;;;;;;5011026;28;20034;-62
2023/12/16 12:48:14;;;;;;;7.10;2.78;;;;;;;;;;5026592;28;20057;-61
2023/12/16 12:50:40;;;;;;;19.23;4.43;;;;;;;;;;5011188;28;20091;-61
2023/12/16 12:53:19;;;;;;;14.40;3.50;;;;;;;;;;5021979;28;20092;-61
2023/12/16 12:55:45;;;;;;;13.82;4.18;;;;;;;;;;5011129;28;20026;-62
2023/12/16 12:58:11;;;;;;;16.58;3.90;;;;;;;;;;5028137;28;20026;-61
2023/12/16 13:00:41;;;;;;;17.83;4.18;;;;;;;;;;5028712;28;20136;-62
2023/12/16 13:03:09;;;;;;;9.63;3.30;;;;;;;;;;5031443;28;20040;-61
2023/12/16 13:05:35;;;;;;;16.08;4.85;;;;;;;;;;5029132;28;20100;-60
2023/12/16 13:08:03;;;;;;;16.20;4.70;;;;;;;;;;5031124;28;20044;-61
2023/12/16 13:10:29;;;;;;;22.20;4.70;;;;;;;;;;5028432;28;20079;-61
2023/12/16 13:12:54;;;;;;;17.17;4.78;;;;;;;;;;5015237;28;20073;-62
2023/12/16 13:15:22;;;;;;;16.02;3.80;;;;;;;;;;5029107;28;20493;-62
2023/12/16 13:17:47;;;;;;;20.48;5.22;;;;;;;;;;5025329;28;20464;-61
2023/12/16 13:20:13;;;;;;;11.48;4.55;;;;;;;;;;5028103;28;20045;-61
2023/12/16 13:22:39;;;;;;;12.95;4.93;;;;;;;;;;5030249;28;20096;-61
2023/12/16 13:25:11;;;;;;;19.15;5.75;;;;;;;;;;5031171;28;20026;-61
2023/12/16 13:27:40;;;;;;;19.23;6.03;;;;;;;;;;5028868;28;20475;-61
2023/12/16 13:30:07;;;;;;;13.98;4.32;;;;;;;;;;5025744;28;20045;-61
2023/12/16 13:32:34;;;;;;;10.45;3.88;;;;;;;;;;5019109;28;20064;-60
2023/12/16 13:35:00;;;;;;;10.00;4.07;;;;;;;;;;5033980;28;20041;-60
2023/12/16 13:37:25;;;;;;;10.45;4.63;;;;;;;;;;5032199;28;20036;-61
2023/12/16 13:39:50;;;;;;;10.13;4.55;;;;;;;;;;5024363;28;20029;-62
2023/12/16 13:42:16;;;;;;;17.13;5.15;;;;;;;;;;5033248;28;20076;-61
2023/12/16 13:44:42;;;;;;;15.57;6.20;;;;;;;;;;5033129;28;20232;-61
2023/12/16 13:47:07;;;;;;;13.20;5.53;;;;;;;;;;5034528;28;20026;-61
2023/12/16 13:49:33;;;;;;;16.77;6.00;;;;;;;;;;5020549;28;20503;-60
2023/12/16 13:51:58;;;;;;;14.18;5.93;;;;;;;;;;5033314;28;20383;-60
2023/12/16 13:54:23;;;;;;;11.77;4.95;;;;;;;;;;5034154;28;20033;-61
2023/12/16 13:56:49;;;;;;;13.02;4.68;;;;;;;;;;5033762;28;20025;-61
2023/12/16 13:59:15;;;;;;;10.57;4.75;;;;;;;;;;5034112;28;20376;-61
2023/12/16 14:01:40;;;;;;;10.57;4.50;;;;;;;;;;5031069;28;20033;-62
2023/12/16 14:04:05;;;;;;;13.98;5.53;;;;;;;;;;5032889;28;20053;-61
2023/12/16 14:06:31;;;;;;;16.25;6.18;;;;;;;;;;5032579;28;20029;-62
2023/12/16 14:08:56;;;;;;;15.38;4.88;;;;;;;;;;5034147;28;20047;-61
2023/12/16 14:11:22;;;;;;;13.55;5.55;;;;;;;;;;5014760;28;20491;-61
2023/12/16 14:13:47;;;;;;;14.82;6.25;;;;;;;;;;5013304;28;20045;-62
2023/12/16 14:16:12;;;;;;;11.80;5.00;;;;;;;;;;5015376;28;20100;-62
2023/12/16 14:18:38;;;;;;;16.05;5.68;;;;;;;;;;5013483;28;20047;-61
2023/12/16 14:21:03;;;;;;;9.77;4.50;;;;;;;;;;5014151;28;20113;-61
2023/12/16 14:23:29;;;;;;;9.55;4.18;;;;;;;;;;5012940;28;20037;-61
2023/12/16 14:25:54;;;;;;;12.40;4.93;;;;;;;;;;5013184;28;20441;-62
2023/12/16 14:28:20;;;;;;;7.50;3.97;;;;;;;;;;5013811;28;20049;-61